createdAt,value
2022-08-19T00:01:59.289Z,21.30
2022-08-19T00:04:31.747Z,21.30
2022-08-19T00:07:00.895Z,21.30
2022-08-19T00:09:30.491Z,21.30
2022-08-19T00:11:59.907Z,21.30
2022-08-19T00:14:32.639Z,21.20
2022-08-19T00:17:01.921Z,21.20
2022-08-19T00:19:30.896Z,21.20
2022-08-19T00:21:59.026Z,21.20
2022-08-19T00:24:30.892Z,21.20
2022-08-19T00:27:05.102Z,21.20
2022-08-19T00:29:52.237Z,21.20
2022-08-19T00:32:21.261Z,21.10
2022-08-19T00:34:49.329Z,21.10
2022-08-19T00:37:17.363Z,21.10
2022-08-19T00:39:46.705Z,21.10
2022-08-19T00:42:17.469Z,21.10
2022-08-19T00:44:45.675Z,21.10
2022-08-19T00:47:15.187Z,21.00
2022-08-19T00:49:52.129Z,21.10
2022-08-19T00:52:25.602Z,21.10
2022-08-19T00:54:54.858Z,21.10
2022-08-19T00:57:30.382Z,21.10
2022-08-19T01:00:03.056Z,21.10
2022-08-19T01:02:34.668Z,21.10
2022-08-19T01:05:07.841Z,21.20
2022-08-19T01:07:37.838Z,21.20
2022-08-19T01:10:10.015Z,21.10
2022-08-19T01:12:38.832Z,21.10
2022-08-19T01:15:10.271Z,21.10
2022-08-19T01:17:42.270Z,20.90
2022-08-19T01:20:14.792Z,20.90
2022-08-19T01:22:47.933Z,21.00
2022-08-19T01:25:17.023Z,21.10
2022-08-19T01:27:49.505Z,21.10
2022-08-19T01:30:26.948Z,21.20
2022-08-19T01:32:56.257Z,21.20
2022-08-19T01:35:26.560Z,21.10
2022-08-19T01:37:59.745Z,21.10
2022-08-19T01:40:34.684Z,21.10
2022-08-19T01:43:04.092Z,21.10
2022-08-19T01:45:35.508Z,21.10
2022-08-19T01:48:08.669Z,21.10
2022-08-19T01:50:37.589Z,21.20
2022-08-19T01:53:13.477Z,21.10
2022-08-19T01:55:44.646Z,21.10
2022-08-19T01:58:17.499Z,21.20
2022-08-19T02:00:46.243Z,21.20
2022-08-19T02:03:14.502Z,21.20
2022-08-19T02:05:43.268Z,21.10
2022-08-19T02:08:13.726Z,21.10
2022-08-19T02:10:44.937Z,21.30
2022-08-19T02:13:14.461Z,21.20
2022-08-19T02:15:43.250Z,21.30
2022-08-19T02:18:11.617Z,21.20
2022-08-19T02:20:42.154Z,21.10
2022-08-19T02:23:15.947Z,21.10
2022-08-19T02:25:45.701Z,21.10
2022-08-19T02:28:18.037Z,21.20
2022-08-19T02:30:48.272Z,21.30
2022-08-19T02:33:16.735Z,21.30
2022-08-19T02:35:45.260Z,21.30
2022-08-19T02:38:30.007Z,21.20
2022-08-19T02:41:01.822Z,21.10
2022-08-19T02:43:34.526Z,21.20
2022-08-19T02:46:03.463Z,21.10
2022-08-19T02:48:33.725Z,21.00
2022-08-19T02:51:01.823Z,21.00
2022-08-19T02:53:31.726Z,21.00
2022-08-19T02:56:00.022Z,21.00
2022-08-19T02:58:28.633Z,21.00
2022-08-19T03:00:59.062Z,20.80
2022-08-19T03:03:27.932Z,20.80
2022-08-19T03:06:10.501Z,20.80
2022-08-19T03:08:44.731Z,20.80
2022-08-19T03:11:17.962Z,20.80
2022-08-19T03:13:46.483Z,20.80
2022-08-19T03:16:15.202Z,20.80
2022-08-19T03:18:44.002Z,20.90
2022-08-19T03:21:17.334Z,20.80
2022-08-19T03:23:46.859Z,20.90
2022-08-19T03:26:17.096Z,20.90
2022-08-19T03:28:51.019Z,20.90
2022-08-19T03:31:44.763Z,20.90
2022-08-19T03:34:13.603Z,20.80
2022-08-19T03:36:42.860Z,20.80
2022-08-19T03:39:12.520Z,20.80
2022-08-19T03:41:45.041Z,20.80
2022-08-19T03:44:18.557Z,20.90
2022-08-19T03:46:49.374Z,20.80
2022-08-19T03:49:18.649Z,20.70
2022-08-19T03:51:49.969Z,20.60
2022-08-19T03:54:24.468Z,20.50
2022-08-19T03:56:56.882Z,20.40
2022-08-19T03:59:28.911Z,20.40
2022-08-19T04:01:59.171Z,20.40
2022-08-19T04:04:29.622Z,20.40
2022-08-19T04:06:58.621Z,20.40
2022-08-19T04:09:28.112Z,20.40
2022-08-19T04:11:58.678Z,20.50
2022-08-19T04:14:31.582Z,20.50
2022-08-19T04:17:00.959Z,20.40
2022-08-19T04:19:31.194Z,20.40
2022-08-19T04:21:59.455Z,20.40
2022-08-19T04:24:28.971Z,20.40
2022-08-19T04:26:57.206Z,20.30
2022-08-19T04:29:27.924Z,20.20
2022-08-19T04:31:58.129Z,20.20
2022-08-19T04:34:30.445Z,20.10
2022-08-19T04:37:00.606Z,20.10
2022-08-19T04:39:46.600Z,20.00
2022-08-19T04:42:32.508Z,20.00
2022-08-19T04:45:00.928Z,20.10
2022-08-19T04:47:47.799Z,20.10
2022-08-19T04:50:17.601Z,20.20
2022-08-19T04:52:45.677Z,20.10
2022-08-19T04:55:15.437Z,20.10
2022-08-19T04:57:43.594Z,20.10
2022-08-19T05:00:13.294Z,20.10
2022-08-19T05:02:41.524Z,20.20
2022-08-19T05:05:10.666Z,20.10
2022-08-19T05:07:39.075Z,20.20
2022-08-19T05:10:08.342Z,20.30
2022-08-19T05:12:38.237Z,20.40
2022-08-19T05:15:09.386Z,20.20
2022-08-19T05:17:38.863Z,20.20
2022-08-19T05:20:27.452Z,20.30
2022-08-19T05:22:55.783Z,20.40
2022-08-19T05:25:26.656Z,20.50
2022-08-19T05:27:56.173Z,20.60
2022-08-19T05:30:33.459Z,20.60
2022-08-19T05:33:12.787Z,20.50
2022-08-19T05:35:42.063Z,20.50
2022-08-19T05:38:11.875Z,20.50
2022-08-19T05:40:41.408Z,20.60
2022-08-19T05:43:11.141Z,20.60
2022-08-19T05:45:43.968Z,20.90
2022-08-19T05:48:13.255Z,21.00
2022-08-19T05:50:43.477Z,21.10
2022-08-19T05:53:12.955Z,21.20
2022-08-19T05:55:41.298Z,21.30
2022-08-19T05:58:10.881Z,21.40
2022-08-19T06:00:41.092Z,21.40
2022-08-19T06:03:09.644Z,21.60
2022-08-19T06:05:46.169Z,21.90
2022-08-19T06:08:33.494Z,22.30
2022-08-19T06:11:16.858Z,22.60
2022-08-19T06:13:51.823Z,23.00
2022-08-19T06:16:23.305Z,23.40
2022-08-19T06:18:53.509Z,23.70
2022-08-19T06:21:21.979Z,24.00
2022-08-19T06:23:51.290Z,24.40
2022-08-19T06:26:21.134Z,24.60
2022-08-19T06:28:51.297Z,24.80
2022-08-19T06:31:22.998Z,24.90
2022-08-19T06:33:52.002Z,24.90
2022-08-19T06:36:25.266Z,25.30
2022-08-19T06:38:54.041Z,25.40
2022-08-19T06:41:22.180Z,25.30
2022-08-19T06:43:54.045Z,25.60
2022-08-19T06:46:24.254Z,26.10
2022-08-19T06:48:54.226Z,26.40
2022-08-19T06:51:24.759Z,26.70
2022-08-19T06:53:56.185Z,27.10
2022-08-19T06:56:31.919Z,26.90
2022-08-19T06:59:01.764Z,26.90
2022-08-19T07:01:30.175Z,26.90
2022-08-19T07:04:01.401Z,27.20
2022-08-19T07:06:43.655Z,27.30
2022-08-19T07:09:18.369Z,27.40
2022-08-19T07:11:50.108Z,27.80
2022-08-19T07:14:25.486Z,28.20
2022-08-19T07:16:56.138Z,28.10
2022-08-19T07:19:27.955Z,28.40
2022-08-19T07:21:57.197Z,28.50
2022-08-19T07:24:28.261Z,28.70
2022-08-19T07:27:03.671Z,28.50
2022-08-19T07:29:39.175Z,28.00
2022-08-19T07:32:11.614Z,28.00
2022-08-19T07:34:41.730Z,27.70
2022-08-19T07:37:11.240Z,27.80
2022-08-19T07:39:40.721Z,27.80
2022-08-19T07:42:13.312Z,28.60
2022-08-19T07:44:50.178Z,28.70
2022-08-19T07:47:58.450Z,29.20
2022-08-19T07:50:12.282Z,29.10
2022-08-19T07:52:41.255Z,28.80
2022-08-19T07:55:39.762Z,29.00
2022-08-19T07:57:59.788Z,29.10
2022-08-19T08:00:29.312Z,29.50
2022-08-19T08:02:57.568Z,29.70
2022-08-19T08:05:44.452Z,29.30
2022-08-19T08:08:27.701Z,30.00
2022-08-19T08:10:57.126Z,30.50
2022-08-19T08:13:26.540Z,31.20
2022-08-19T08:15:56.523Z,31.50
2022-08-19T08:18:28.009Z,30.90
2022-08-19T08:21:00.115Z,30.70
2022-08-19T08:23:29.563Z,31.10
2022-08-19T08:26:00.153Z,30.90
2022-08-19T08:28:30.613Z,30.60
2022-08-19T08:31:00.668Z,30.60
2022-08-19T08:33:33.259Z,30.60
2022-08-19T08:36:04.791Z,30.60
2022-08-19T08:38:38.947Z,30.40
2022-08-19T08:41:21.026Z,30.10
2022-08-19T08:43:53.093Z,30.40
2022-08-19T08:46:31.269Z,30.20
2022-08-19T08:49:08.356Z,29.80
2022-08-19T08:51:44.513Z,30.00
2022-08-19T08:54:20.635Z,30.30
2022-08-19T08:56:51.780Z,30.60
2022-08-19T08:59:25.422Z,30.60
2022-08-19T09:01:54.972Z,29.80
2022-08-19T09:04:23.977Z,29.50
2022-08-19T09:07:17.989Z,29.50
2022-08-19T09:10:04.752Z,29.00
2022-08-19T09:12:43.073Z,29.00
2022-08-19T09:15:15.238Z,29.20
2022-08-19T09:17:45.420Z,29.30
2022-08-19T09:20:22.405Z,29.50
2022-08-19T09:22:51.585Z,30.10
2022-08-19T09:25:24.687Z,30.60
2022-08-19T09:28:02.657Z,31.30
2022-08-19T09:30:34.782Z,31.60
2022-08-19T09:33:04.361Z,31.80
2022-08-19T09:35:32.889Z,32.50
2022-08-19T09:38:17.674Z,32.20
2022-08-19T09:40:45.788Z,32.60
2022-08-19T09:43:14.107Z,33.00
2022-08-19T09:45:42.343Z,32.70
2022-08-19T09:48:11.965Z,33.60
2022-08-19T09:50:51.528Z,34.10
2022-08-19T09:53:25.514Z,33.20
2022-08-19T09:55:54.031Z,31.70
2022-08-19T09:58:26.653Z,32.10
2022-08-19T10:00:55.667Z,32.70
2022-08-19T10:03:30.016Z,33.30
2022-08-19T10:06:00.681Z,33.70
2022-08-19T10:08:33.812Z,33.80
2022-08-19T10:11:27.817Z,33.40
2022-08-19T10:13:51.530Z,33.20
2022-08-19T10:16:23.150Z,34.20
2022-08-19T10:18:58.820Z,34.00
2022-08-19T10:21:32.210Z,34.30
2022-08-19T10:24:06.231Z,34.00
2022-08-19T10:26:38.076Z,34.00
2022-08-19T10:29:09.310Z,34.00
2022-08-19T10:32:00.664Z,33.40
2022-08-19T10:34:30.280Z,34.00
2022-08-19T10:37:01.924Z,34.00
2022-08-19T10:39:32.105Z,34.50
2022-08-19T10:42:05.797Z,33.90
2022-08-19T10:44:36.410Z,33.90
2022-08-19T10:47:17.714Z,33.70
2022-08-19T10:50:13.618Z,34.30
2022-08-19T10:52:49.513Z,34.20
2022-08-19T10:55:39.030Z,34.30
2022-08-19T10:58:14.051Z,34.50
2022-08-19T11:00:43.239Z,34.10
2022-08-19T11:03:11.841Z,33.90
2022-08-19T11:05:53.515Z,34.40
2022-08-19T11:08:25.390Z,34.40
2022-08-19T11:11:04.474Z,34.50
2022-08-19T11:13:46.836Z,34.30
2022-08-19T11:16:19.934Z,33.50
2022-08-19T11:19:13.166Z,33.70
2022-08-19T11:22:00.210Z,33.10
2022-08-19T11:24:31.006Z,32.40
2022-08-19T11:27:05.943Z,31.90
2022-08-19T11:29:35.353Z,31.70
2022-08-19T11:32:07.461Z,31.50
2022-08-19T11:34:36.276Z,31.70
2022-08-19T11:37:06.636Z,31.40
2022-08-19T11:39:37.881Z,31.30
2022-08-19T11:42:28.949Z,31.10
2022-08-19T11:44:57.241Z,31.10
2022-08-19T11:47:25.354Z,31.00
2022-08-19T11:49:54.402Z,30.70
2022-08-19T11:52:23.947Z,30.60
2022-08-19T11:54:52.013Z,30.40
2022-08-19T11:57:20.669Z,29.80
2022-08-19T11:59:55.222Z,29.60
2022-08-19T12:02:24.242Z,29.60
2022-08-19T12:04:52.501Z,29.50
2022-08-19T12:07:20.627Z,29.60
2022-08-19T12:09:50.030Z,29.30
2022-08-19T12:12:18.810Z,29.30
2022-08-19T12:14:47.517Z,29.10
2022-08-19T12:17:16.156Z,29.30
2022-08-19T12:19:44.439Z,29.50
2022-08-19T12:22:15.214Z,29.70
2022-08-19T12:24:43.611Z,29.60
2022-08-19T12:27:13.123Z,29.50
2022-08-19T12:30:02.601Z,29.50
2022-08-19T12:32:31.865Z,29.20
2022-08-19T12:35:00.052Z,29.40
2022-08-19T12:37:28.142Z,29.60
2022-08-19T12:39:56.938Z,29.80
2022-08-19T12:42:26.840Z,29.80
2022-08-19T12:44:54.923Z,29.30
2022-08-19T12:47:23.049Z,29.20
2022-08-19T12:49:55.495Z,29.40
2022-08-19T12:52:26.707Z,29.60
2022-08-19T12:54:57.682Z,29.80
2022-08-19T12:57:32.801Z,29.80
2022-08-19T13:00:07.064Z,29.60
2022-08-19T13:02:38.278Z,29.70
2022-08-19T13:05:11.923Z,29.70
2022-08-19T13:07:42.003Z,29.70
2022-08-19T13:10:13.233Z,29.40
2022-08-19T13:12:43.267Z,29.20
2022-08-19T13:15:12.705Z,29.00
2022-08-19T13:17:43.494Z,28.90
2022-08-19T13:20:13.374Z,28.90
2022-08-19T13:22:41.566Z,28.90
2022-08-19T13:25:10.774Z,29.00
2022-08-19T13:27:40.459Z,29.10
2022-08-19T13:30:31.500Z,29.30
2022-08-19T13:33:16.621Z,29.20
2022-08-19T13:35:49.073Z,29.30
2022-08-19T13:38:19.883Z,29.40
2022-08-19T13:40:48.341Z,29.50
2022-08-19T13:43:23.135Z,29.50
2022-08-19T13:45:57.221Z,29.40
2022-08-19T13:48:27.822Z,29.40
2022-08-19T13:50:56.893Z,29.00
2022-08-19T13:53:25.557Z,29.10
2022-08-19T13:55:54.615Z,29.10
2022-08-19T13:58:23.228Z,29.20
2022-08-19T14:00:52.810Z,29.30
2022-08-19T14:03:20.967Z,29.30
2022-08-19T14:05:49.357Z,29.30
2022-08-19T14:08:17.914Z,29.40
2022-08-19T14:10:46.423Z,29.40
2022-08-19T14:13:18.703Z,29.30
2022-08-19T14:15:47.092Z,29.10
2022-08-19T14:18:17.200Z,29.10
2022-08-19T14:20:46.500Z,28.90
2022-08-19T14:23:14.721Z,28.90
2022-08-19T14:25:42.903Z,29.10
2022-08-19T14:28:11.620Z,29.20
2022-08-19T14:30:39.841Z,29.10
2022-08-19T14:33:09.418Z,29.00
2022-08-19T14:35:39.384Z,29.00
2022-08-19T14:38:09.042Z,29.20
2022-08-19T14:40:38.841Z,29.00
2022-08-19T14:43:07.251Z,29.20
2022-08-19T14:45:41.113Z,29.20
2022-08-19T14:48:12.526Z,29.30
2022-08-19T14:50:49.007Z,29.20
2022-08-19T14:53:18.682Z,29.30
2022-08-19T14:55:48.415Z,29.30
2022-08-19T14:58:29.870Z,29.10
2022-08-19T15:01:00.838Z,29.20
2022-08-19T15:03:29.882Z,29.40
2022-08-19T15:06:01.596Z,29.50
2022-08-19T15:08:32.668Z,29.50
2022-08-19T15:11:01.382Z,29.40
2022-08-19T15:13:31.156Z,29.50
2022-08-19T15:15:59.779Z,29.50
2022-08-19T15:18:28.299Z,29.50
2022-08-19T15:20:57.920Z,29.30
2022-08-19T15:23:26.214Z,29.20
2022-08-19T15:25:55.894Z,28.80
2022-08-19T15:28:25.679Z,28.90
2022-08-19T15:30:54.309Z,29.10
2022-08-19T15:33:22.594Z,29.00
2022-08-19T15:35:52.413Z,29.00
2022-08-19T15:38:23.803Z,28.90
2022-08-19T15:40:52.943Z,29.10
2022-08-19T15:43:23.255Z,29.10
2022-08-19T15:45:51.550Z,29.10
2022-08-19T15:48:19.862Z,29.20
2022-08-19T15:50:48.053Z,29.10
2022-08-19T15:53:17.186Z,28.90
2022-08-19T15:55:48.491Z,28.80
2022-08-19T15:58:34.575Z,28.80
2022-08-19T16:01:26.855Z,28.90
2022-08-19T16:04:16.114Z,28.70
2022-08-19T16:06:47.795Z,28.60
2022-08-19T16:09:17.495Z,28.70
2022-08-19T16:11:56.609Z,28.70
2022-08-19T16:14:26.195Z,28.40
2022-08-19T16:16:57.874Z,28.30
2022-08-19T16:19:26.645Z,28.40
2022-08-19T16:21:57.495Z,28.50
2022-08-19T16:24:28.608Z,28.30
2022-08-19T16:26:58.514Z,28.30
2022-08-19T16:29:34.058Z,28.40
2022-08-19T16:32:04.993Z,28.40
2022-08-19T16:34:34.659Z,28.40
2022-08-19T16:37:02.932Z,28.50
2022-08-19T16:39:31.120Z,28.60
2022-08-19T16:42:01.193Z,28.50
2022-08-19T16:44:30.175Z,28.50
2022-08-19T16:46:59.539Z,28.50
2022-08-19T16:49:53.527Z,28.50
2022-08-19T16:52:18.011Z,28.50
2022-08-19T16:54:46.466Z,28.60
2022-08-19T16:57:16.849Z,28.60
2022-08-19T16:59:49.547Z,28.50
2022-08-19T17:02:20.039Z,28.50
2022-08-19T17:04:58.033Z,28.50
2022-08-19T17:07:27.578Z,28.40
2022-08-19T17:09:55.661Z,28.20
2022-08-19T17:12:30.603Z,28.10
2022-08-19T17:15:00.973Z,27.90
2022-08-19T17:17:29.962Z,27.90
2022-08-19T17:19:58.936Z,27.90
2022-08-19T17:22:27.366Z,27.60
2022-08-19T17:24:56.449Z,27.60
2022-08-19T17:27:31.364Z,27.70
2022-08-19T17:30:02.458Z,27.60
2022-08-19T17:32:33.241Z,27.40
2022-08-19T17:35:01.396Z,27.50
2022-08-19T17:37:29.546Z,27.30
2022-08-19T17:39:57.721Z,27.30
2022-08-19T17:42:27.899Z,27.30
2022-08-19T17:44:59.422Z,27.30
2022-08-19T17:47:28.321Z,27.30
2022-08-19T17:49:56.702Z,27.40
2022-08-19T17:52:25.502Z,27.30
2022-08-19T17:54:54.979Z,27.30
2022-08-19T17:57:23.416Z,27.40
2022-08-19T17:59:53.092Z,27.30
2022-08-19T18:02:22.051Z,27.20
2022-08-19T18:04:50.607Z,27.10
2022-08-19T18:07:21.364Z,27.10
2022-08-19T18:09:52.669Z,27.00
2022-08-19T18:12:26.403Z,26.90
2022-08-19T18:14:55.890Z,27.00
2022-08-19T18:17:25.434Z,26.90
2022-08-19T18:19:53.621Z,26.80
2022-08-19T18:22:28.217Z,26.70
2022-08-19T18:24:57.172Z,26.70
2022-08-19T18:27:25.947Z,26.60
2022-08-19T18:29:59.268Z,26.40
2022-08-19T18:32:29.567Z,26.40
2022-08-19T18:34:57.763Z,26.30
2022-08-19T18:37:28.477Z,26.20
2022-08-19T18:40:14.956Z,26.00
2022-08-19T18:43:02.037Z,25.80
2022-08-19T18:45:51.348Z,25.50
2022-08-19T18:48:36.726Z,25.60
2022-08-19T18:51:05.230Z,25.40
2022-08-19T18:53:37.327Z,25.30
2022-08-19T18:56:06.167Z,25.20
2022-08-19T18:58:35.136Z,25.00
2022-08-19T19:01:10.614Z,24.90
2022-08-19T19:03:41.134Z,24.90
2022-08-19T19:06:09.245Z,24.80
2022-08-19T19:08:38.726Z,25.00
2022-08-19T19:11:07.038Z,24.80
2022-08-19T19:13:37.000Z,24.80
2022-08-19T19:16:11.440Z,24.80
2022-08-19T19:18:39.729Z,24.80
2022-08-19T19:21:08.872Z,24.80
2022-08-19T19:23:40.532Z,24.90
2022-08-19T19:26:10.449Z,24.80
2022-08-19T19:28:43.562Z,24.80
2022-08-19T19:31:17.695Z,24.60
2022-08-19T19:33:46.638Z,24.60
2022-08-19T19:36:14.907Z,24.70
2022-08-19T19:38:48.622Z,24.60
2022-08-19T19:41:20.772Z,24.40
2022-08-19T19:43:59.909Z,24.50
2022-08-19T19:46:42.484Z,24.50
2022-08-19T19:49:11.239Z,24.50
2022-08-19T19:51:39.584Z,24.70
2022-08-19T19:54:13.480Z,24.50
2022-08-19T19:56:46.419Z,24.50
2022-08-19T19:59:15.283Z,24.60
2022-08-19T20:01:46.118Z,24.50
2022-08-19T20:04:16.550Z,24.50
2022-08-19T20:06:46.219Z,24.40
2022-08-19T20:09:19.527Z,24.50
2022-08-19T20:11:53.706Z,24.40
2022-08-19T20:14:25.806Z,24.40
2022-08-19T20:16:57.118Z,24.30
2022-08-19T20:19:27.797Z,24.30
2022-08-19T20:21:57.412Z,24.10
2022-08-19T20:24:32.381Z,23.90
2022-08-19T20:27:01.556Z,24.00
2022-08-19T20:29:38.458Z,24.00
2022-08-19T20:32:10.584Z,23.80
2022-08-19T20:34:39.178Z,23.60
2022-08-19T20:37:09.217Z,23.50
2022-08-19T20:39:38.066Z,23.40
2022-08-19T20:42:06.643Z,23.40
2022-08-19T20:44:35.402Z,23.30
2022-08-19T20:47:04.192Z,23.30
2022-08-19T20:49:35.150Z,23.10
2022-08-19T20:52:06.205Z,23.00
2022-08-19T20:54:34.468Z,22.90
2022-08-19T20:57:03.705Z,23.00
2022-08-19T20:59:31.871Z,22.90
2022-08-19T21:01:59.932Z,22.90
2022-08-19T21:04:28.063Z,22.90
2022-08-19T21:06:57.503Z,22.80
2022-08-19T21:09:25.588Z,22.70
2022-08-19T21:11:53.684Z,22.70
2022-08-19T21:14:22.592Z,22.70
2022-08-19T21:16:51.020Z,22.60
2022-08-19T21:19:23.294Z,22.60
2022-08-19T21:21:52.304Z,22.70
2022-08-19T21:24:21.912Z,22.70
2022-08-19T21:26:59.746Z,22.70
2022-08-19T21:29:27.887Z,22.70
2022-08-19T21:31:55.967Z,22.70
2022-08-19T21:34:24.051Z,22.70
2022-08-19T21:36:52.219Z,22.60
2022-08-19T21:39:21.701Z,22.50
2022-08-19T21:41:49.818Z,22.50
2022-08-19T21:44:17.918Z,22.60
2022-08-19T21:46:46.028Z,22.50
2022-08-19T21:49:19.557Z,22.50
2022-08-19T21:51:47.679Z,22.60
2022-08-19T21:54:15.817Z,22.60
2022-08-19T21:56:45.295Z,22.60
2022-08-19T21:59:13.487Z,22.50
2022-08-19T22:01:46.005Z,22.50
2022-08-19T22:04:17.272Z,22.50
2022-08-19T22:06:45.551Z,22.50
2022-08-19T22:09:14.282Z,22.60
2022-08-19T22:11:44.360Z,22.50
2022-08-19T22:14:12.501Z,22.50
2022-08-19T22:16:40.803Z,22.50
2022-08-19T22:19:09.916Z,22.50
2022-08-19T22:21:40.877Z,22.50
2022-08-19T22:24:10.357Z,22.40
2022-08-19T22:26:38.497Z,22.60
2022-08-19T22:29:08.263Z,22.60
2022-08-19T22:31:37.532Z,22.70
2022-08-19T22:34:07.247Z,22.70
2022-08-19T22:36:35.618Z,22.70
2022-08-19T22:39:04.825Z,22.70
2022-08-19T22:41:33.747Z,22.70
2022-08-19T22:44:02.158Z,22.80
2022-08-19T22:46:34.211Z,22.90
2022-08-19T22:49:02.390Z,22.90
2022-08-19T22:51:48.095Z,22.90
2022-08-19T22:54:16.502Z,22.90
2022-08-19T22:56:44.796Z,22.80
2022-08-19T22:59:12.867Z,22.60
2022-08-19T23:01:42.713Z,22.70
2022-08-19T23:04:11.495Z,22.70
2022-08-19T23:06:42.084Z,22.60
2022-08-19T23:09:16.706Z,22.70
2022-08-19T23:11:46.242Z,22.70
2022-08-19T23:14:16.773Z,22.50
2022-08-19T23:16:50.963Z,22.50
2022-08-19T23:19:21.014Z,22.40
2022-08-19T23:21:50.239Z,22.50
2022-08-19T23:24:18.339Z,22.50
2022-08-19T23:27:00.383Z,22.40
2022-08-19T23:29:46.254Z,22.60
2022-08-19T23:32:18.363Z,22.70
2022-08-19T23:34:46.712Z,22.60
2022-08-19T23:37:16.053Z,22.60
2022-08-19T23:39:44.625Z,22.70
2022-08-19T23:42:13.596Z,22.80
2022-08-19T23:44:52.178Z,22.80
2022-08-19T23:47:23.540Z,22.70
2022-08-19T23:49:51.641Z,22.80
2022-08-19T23:52:20.421Z,22.70
2022-08-19T23:54:48.559Z,22.70
2022-08-19T23:57:16.945Z,22.60
2022-08-19T23:59:46.170Z,22.50
